« 艦艇広報「ひゅうが」 新潟東港 2018/7/16 mon | トップページ | 趣味的航空路誌改訂情報 2018/7/19 thu »

2018/07/18

海フェスタにいがた【B.I.】 新潟市 2018/7/16 mon

新潟東港から新潟市中心部へ転進。いやー、それにしても「ひゅうが」効果は、絶大。新潟はなんでこんなに車が多いのか・・・ ひゅうが見学待ちの車の列が7号パイパス本線上まで続いている。異常。

さてさて、にいがた海フェスタのもう一つのイベント。ブルーインパルス展示飛行。新潟市内中心部での展示は初めて。

20180716_niigata_00niigata

小生のビューポイントは、ココ。北海道じゃないよ・・

RJSN 160500Z 28012KT 9999 FEW030 BKN/// 30/24 Q1011

20180716_niigata_01b28027

FEA621 RJSN-RCTP B-28027 MD-80

新潟空港はRW28。離陸機が目の前を上昇していきます。

20180716_niigata_02ja464a

ANA3240 RJSN-RJAA JA464A DHC8-402Q

予定時間が迫る中、これがトラフィクの最後かな・・ むむ、ドクヘリ?

20180716_niigata_03bi

遠く、新潟東港の「ひゅうが」上空をパスするスモークを発見

20180716_niigata_04bi

デルタのダーティ形態で北東方向から進入

20180716_niigata_05bi

20180716_niigata_06bi

デルタ・ダーティ・ローパス

20180716_niigata_07bi

最低高度は1500ft

20180716_niigata_08bi

右に廻って・・

20180716_niigata_09bi

北西から スワン・ローパス

20180716_niigata_10bi

信濃川の堤防に見学者が沢山です。

20180716_niigata_11bi

#1 745 #2 787 #3 692 #4 731 #5 790 #6 666

20180716_niigata_12bi

20180716_niigata_13bi

20180716_niigata_14bi

ポイント・スター・ローパス

20180716_niigata_15bi

20180716_niigata_16bi

20180716_niigata_17bi

南東方面へ

20180716_niigata_18bi

デルタ・スリー・シックスティ・ターン

20180716_niigata_19bi

20180716_niigata_20bi

20180716_niigata_21bi

RJSN 160600Z 29010KT 9999 FEW030 BKN/// 29/25 Q1011

20180716_niigata_22bi

20180716_niigata_23bi

20180716_niigata_24bi

フェニックス・ローパス

20180716_niigata_25bi

20180716_niigata_26bi

全機上昇して・・

20180716_niigata_27bi

スモック

20180716_niigata_28bi

サクラ

20180716_niigata_29bi

雲になじんでしまってるなぁ

20180716_niigata_30bi

スモック

20180716_niigata_31bi

サクラでミッションコンプリート

20180716_niigata_32bi

各機、上空で徐々に編隊を形成していきます。

20180716_niigata_33bi

20180716_niigata_34bi

洋上に抜ける前に、クリアランスをもらって山形経由で松島へ帰還なさいました。おつかれさまでした。

20180716_niigata_35bi

終了のアナウンスなどわからないので、なかなか立ち去らない観客さま

20180716_niigata_36niigataphp

新潟県庁へリポート チョットチェック

さて、混んだ道に耐えながら帰路に着きました。

T01u-SNA-SND(BC)-SNA-T01u-T02u(ch5)

|

« 艦艇広報「ひゅうが」 新潟東港 2018/7/16 mon | トップページ | 趣味的航空路誌改訂情報 2018/7/19 thu »

BI」カテゴリの記事

場外」カテゴリの記事

コメント

コメントを書く



(ウェブ上には掲載しません)


コメントは記事投稿者が公開するまで表示されません。



トラックバック


この記事へのトラックバック一覧です: 海フェスタにいがた【B.I.】 新潟市 2018/7/16 mon:

« 艦艇広報「ひゅうが」 新潟東港 2018/7/16 mon | トップページ | 趣味的航空路誌改訂情報 2018/7/19 thu »